sensor_id;sensor_type;location;lat;lon;timestamp;P1;durP1;ratioP1;P2;durP2;ratioP2
21999;SDS011;11164;48.818;2.322;2022-12-24T00:00:24;25.70;;;4.47;;
21999;SDS011;11164;48.818;2.322;2022-12-24T00:02:50;27.60;;;5.18;;
21999;SDS011;11164;48.818;2.322;2022-12-24T00:05:15;32.30;;;5.65;;
21999;SDS011;11164;48.818;2.322;2022-12-24T00:07:41;31.10;;;4.60;;
21999;SDS011;11164;48.818;2.322;2022-12-24T00:10:06;26.73;;;4.35;;
21999;SDS011;11164;48.818;2.322;2022-12-24T00:12:32;27.42;;;4.43;;
21999;SDS011;11164;48.818;2.322;2022-12-24T00:14:58;23.33;;;4.95;;
21999;SDS011;11164;48.818;2.322;2022-12-24T00:17:23;26.50;;;4.47;;
21999;SDS011;11164;48.818;2.322;2022-12-24T00:19:48;28.65;;;5.43;;
21999;SDS011;11164;48.818;2.322;2022-12-24T00:22:14;31.77;;;4.97;;
21999;SDS011;11164;48.818;2.322;2022-12-24T00:24:39;28.17;;;4.10;;
21999;SDS011;11164;48.818;2.322;2022-12-24T00:27:04;25.42;;;5.07;;
21999;SDS011;11164;48.818;2.322;2022-12-24T00:29:30;33.95;;;4.90;;
21999;SDS011;11164;48.818;2.322;2022-12-24T00:31:56;22.30;;;4.10;;
21999;SDS011;11164;48.818;2.322;2022-12-24T00:34:22;31.60;;;5.20;;
21999;SDS011;11164;48.818;2.322;2022-12-24T00:36:48;30.00;;;5.32;;
21999;SDS011;11164;48.818;2.322;2022-12-24T00:39:13;27.55;;;4.93;;
21999;SDS011;11164;48.818;2.322;2022-12-24T00:41:39;33.83;;;4.95;;
21999;SDS011;11164;48.818;2.322;2022-12-24T00:44:05;27.30;;;4.38;;
21999;SDS011;11164;48.818;2.322;2022-12-24T00:46:34;24.92;;;4.90;;
21999;SDS011;11164;48.818;2.322;2022-12-24T00:49:01;27.30;;;5.13;;
21999;SDS011;11164;48.818;2.322;2022-12-24T00:51:27;23.50;;;4.45;;
21999;SDS011;11164;48.818;2.322;2022-12-24T00:53:53;26.45;;;5.03;;
21999;SDS011;11164;48.818;2.322;2022-12-24T00:56:18;23.70;;;4.85;;
21999;SDS011;11164;48.818;2.322;2022-12-24T00:58:43;30.80;;;5.57;;
21999;SDS011;11164;48.818;2.322;2022-12-24T01:01:09;33.78;;;4.85;;
21999;SDS011;11164;48.818;2.322;2022-12-24T01:03:35;29.08;;;6.07;;
21999;SDS011;11164;48.818;2.322;2022-12-24T01:06:02;23.73;;;4.20;;
21999;SDS011;11164;48.818;2.322;2022-12-24T01:08:35;23.02;;;4.72;;
21999;SDS011;11164;48.818;2.322;2022-12-24T01:11:01;28.80;;;5.03;;
21999;SDS011;11164;48.818;2.322;2022-12-24T01:13:28;29.90;;;5.45;;
21999;SDS011;11164;48.818;2.322;2022-12-24T01:15:53;23.42;;;4.80;;
21999;SDS011;11164;48.818;2.322;2022-12-24T01:18:19;31.67;;;5.40;;
21999;SDS011;11164;48.818;2.322;2022-12-24T01:20:45;35.40;;;5.57;;
21999;SDS011;11164;48.818;2.322;2022-12-24T01:23:10;30.48;;;5.07;;
21999;SDS011;11164;48.818;2.322;2022-12-24T01:25:38;36.63;;;5.38;;
21999;SDS011;11164;48.818;2.322;2022-12-24T01:28:04;31.63;;;5.38;;
21999;SDS011;11164;48.818;2.322;2022-12-24T01:30:30;28.15;;;4.60;;
21999;SDS011;11164;48.818;2.322;2022-12-24T01:32:56;31.08;;;5.57;;
21999;SDS011;11164;48.818;2.322;2022-12-24T01:35:21;33.50;;;5.40;;
21999;SDS011;11164;48.818;2.322;2022-12-24T01:37:47;33.85;;;5.95;;
21999;SDS011;11164;48.818;2.322;2022-12-24T01:40:15;34.40;;;5.00;;
21999;SDS011;11164;48.818;2.322;2022-12-24T01:43:00;33.67;;;5.30;;
21999;SDS011;11164;48.818;2.322;2022-12-24T01:46:03;27.65;;;5.57;;
21999;SDS011;11164;48.818;2.322;2022-12-24T01:48:59;33.47;;;4.82;;
21999;SDS011;11164;48.818;2.322;2022-12-24T01:51:34;29.42;;;5.30;;
21999;SDS011;11164;48.818;2.322;2022-12-24T01:54:08;30.60;;;5.10;;
21999;SDS011;11164;48.818;2.322;2022-12-24T01:56:41;31.33;;;4.82;;
21999;SDS011;11164;48.818;2.322;2022-12-24T01:59:11;25.60;;;4.38;;
21999;SDS011;11164;48.818;2.322;2022-12-24T02:01:39;26.88;;;5.68;;
21999;SDS011;11164;48.818;2.322;2022-12-24T02:04:23;29.30;;;4.65;;
21999;SDS011;11164;48.818;2.322;2022-12-24T02:06:56;28.52;;;4.97;;
21999;SDS011;11164;48.818;2.322;2022-12-24T02:09:21;30.65;;;5.10;;
21999;SDS011;11164;48.818;2.322;2022-12-24T02:11:46;26.50;;;4.80;;
21999;SDS011;11164;48.818;2.322;2022-12-24T02:14:12;34.13;;;5.47;;
21999;SDS011;11164;48.818;2.322;2022-12-24T02:22:24;24.10;;;4.68;;
21999;SDS011;11164;48.818;2.322;2022-12-24T02:30:22;26.73;;;5.30;;
21999;SDS011;11164;48.818;2.322;2022-12-24T02:32:59;26.80;;;5.45;;
21999;SDS011;11164;48.818;2.322;2022-12-24T02:38:27;32.38;;;5.30;;
21999;SDS011;11164;48.818;2.322;2022-12-24T02:40:58;29.20;;;5.00;;
21999;SDS011;11164;48.818;2.322;2022-12-24T02:43:38;32.28;;;5.05;;
21999;SDS011;11164;48.818;2.322;2022-12-24T02:46:10;26.88;;;4.90;;
21999;SDS011;11164;48.818;2.322;2022-12-24T02:48:40;28.35;;;4.10;;
21999;SDS011;11164;48.818;2.322;2022-12-24T02:51:08;24.88;;;4.32;;
21999;SDS011;11164;48.818;2.322;2022-12-24T02:53:35;29.65;;;5.00;;
21999;SDS011;11164;48.818;2.322;2022-12-24T03:07:20;29.63;;;5.10;;
21999;SDS011;11164;48.818;2.322;2022-12-24T03:10:06;26.35;;;4.88;;
21999;SDS011;11164;48.818;2.322;2022-12-24T03:12:46;28.25;;;4.75;;
21999;SDS011;11164;48.818;2.322;2022-12-24T03:15:15;28.77;;;5.00;;
21999;SDS011;11164;48.818;2.322;2022-12-24T03:17:42;24.83;;;4.40;;
21999;SDS011;11164;48.818;2.322;2022-12-24T03:20:11;36.53;;;5.78;;
21999;SDS011;11164;48.818;2.322;2022-12-24T03:22:44;32.72;;;5.65;;
21999;SDS011;11164;48.818;2.322;2022-12-24T03:25:10;34.85;;;5.60;;
21999;SDS011;11164;48.818;2.322;2022-12-24T03:27:36;29.65;;;4.97;;
21999;SDS011;11164;48.818;2.322;2022-12-24T03:30:03;26.55;;;5.22;;
21999;SDS011;11164;48.818;2.322;2022-12-24T03:32:29;31.20;;;4.78;;
21999;SDS011;11164;48.818;2.322;2022-12-24T03:34:56;29.77;;;5.60;;
21999;SDS011;11164;48.818;2.322;2022-12-24T03:37:22;29.15;;;6.00;;
21999;SDS011;11164;48.818;2.322;2022-12-24T03:39:47;30.50;;;4.50;;
21999;SDS011;11164;48.818;2.322;2022-12-24T03:42:12;26.05;;;4.85;;
21999;SDS011;11164;48.818;2.322;2022-12-24T03:44:38;35.60;;;5.43;;
21999;SDS011;11164;48.818;2.322;2022-12-24T03:47:03;27.67;;;5.15;;
21999;SDS011;11164;48.818;2.322;2022-12-24T03:49:29;37.17;;;5.25;;
21999;SDS011;11164;48.818;2.322;2022-12-24T03:51:54;34.63;;;5.45;;
21999;SDS011;11164;48.818;2.322;2022-12-24T03:54:20;34.83;;;5.10;;
21999;SDS011;11164;48.818;2.322;2022-12-24T03:56:45;31.08;;;5.57;;
21999;SDS011;11164;48.818;2.322;2022-12-24T03:59:10;34.50;;;4.90;;
21999;SDS011;11164;48.818;2.322;2022-12-24T04:01:36;31.60;;;4.70;;
21999;SDS011;11164;48.818;2.322;2022-12-24T04:04:01;35.80;;;5.65;;
21999;SDS011;11164;48.818;2.322;2022-12-24T04:06:26;31.60;;;5.85;;
21999;SDS011;11164;48.818;2.322;2022-12-24T04:08:52;28.30;;;5.15;;
21999;SDS011;11164;48.818;2.322;2022-12-24T04:11:17;32.45;;;5.60;;
21999;SDS011;11164;48.818;2.322;2022-12-24T04:13:43;33.95;;;5.80;;
21999;SDS011;11164;48.818;2.322;2022-12-24T04:16:10;34.70;;;5.50;;
21999;SDS011;11164;48.818;2.322;2022-12-24T04:18:38;27.85;;;4.70;;
21999;SDS011;11164;48.818;2.322;2022-12-24T04:21:04;34.70;;;5.50;;
21999;SDS011;11164;48.818;2.322;2022-12-24T04:23:31;33.70;;;4.95;;
21999;SDS011;11164;48.818;2.322;2022-12-24T04:26:02;35.35;;;4.90;;
21999;SDS011;11164;48.818;2.322;2022-12-24T04:28:29;28.80;;;5.85;;
21999;SDS011;11164;48.818;2.322;2022-12-24T04:30:58;27.13;;;5.03;;
21999;SDS011;11164;48.818;2.322;2022-12-24T04:33:24;32.47;;;5.07;;
21999;SDS011;11164;48.818;2.322;2022-12-24T04:35:50;31.05;;;5.10;;
21999;SDS011;11164;48.818;2.322;2022-12-24T04:38:15;25.25;;;5.00;;
21999;SDS011;11164;48.818;2.322;2022-12-24T04:40:41;32.83;;;5.65;;
21999;SDS011;11164;48.818;2.322;2022-12-24T04:43:06;31.95;;;5.70;;
21999;SDS011;11164;48.818;2.322;2022-12-24T04:45:31;34.10;;;5.15;;
21999;SDS011;11164;48.818;2.322;2022-12-24T04:47:57;32.15;;;4.68;;
21999;SDS011;11164;48.818;2.322;2022-12-24T04:50:22;34.92;;;4.78;;
21999;SDS011;11164;48.818;2.322;2022-12-24T04:52:47;31.33;;;5.10;;
21999;SDS011;11164;48.818;2.322;2022-12-24T04:55:13;27.98;;;5.65;;
21999;SDS011;11164;48.818;2.322;2022-12-24T04:57:38;32.72;;;5.00;;
21999;SDS011;11164;48.818;2.322;2022-12-24T05:00:04;36.80;;;5.68;;
21999;SDS011;11164;48.818;2.322;2022-12-24T05:02:31;22.23;;;5.15;;
21999;SDS011;11164;48.818;2.322;2022-12-24T05:04:56;26.55;;;5.03;;
21999;SDS011;11164;48.818;2.322;2022-12-24T05:07:21;28.42;;;5.30;;
21999;SDS011;11164;48.818;2.322;2022-12-24T05:09:47;26.00;;;4.57;;
21999;SDS011;11164;48.818;2.322;2022-12-24T05:12:12;32.60;;;4.90;;
21999;SDS011;11164;48.818;2.322;2022-12-24T05:14:38;26.25;;;5.18;;
21999;SDS011;11164;48.818;2.322;2022-12-24T05:17:03;31.33;;;4.70;;
21999;SDS011;11164;48.818;2.322;2022-12-24T05:19:29;38.30;;;5.40;;
21999;SDS011;11164;48.818;2.322;2022-12-24T05:21:54;32.00;;;5.22;;
21999;SDS011;11164;48.818;2.322;2022-12-24T05:24:38;27.40;;;5.30;;
21999;SDS011;11164;48.818;2.322;2022-12-24T05:27:22;31.07;;;5.10;;
21999;SDS011;11164;48.818;2.322;2022-12-24T05:29:47;31.42;;;5.88;;
21999;SDS011;11164;48.818;2.322;2022-12-24T05:32:12;26.67;;;5.07;;
21999;SDS011;11164;48.818;2.322;2022-12-24T05:34:38;27.67;;;5.28;;
21999;SDS011;11164;48.818;2.322;2022-12-24T05:37:03;28.00;;;5.03;;
21999;SDS011;11164;48.818;2.322;2022-12-24T05:39:28;26.92;;;5.43;;
21999;SDS011;11164;48.818;2.322;2022-12-24T05:41:53;33.75;;;6.47;;
21999;SDS011;11164;48.818;2.322;2022-12-24T05:44:19;28.35;;;5.63;;
21999;SDS011;11164;48.818;2.322;2022-12-24T05:46:44;38.15;;;6.00;;
21999;SDS011;11164;48.818;2.322;2022-12-24T05:49:10;25.38;;;5.13;;
21999;SDS011;11164;48.818;2.322;2022-12-24T05:51:35;29.23;;;5.60;;
21999;SDS011;11164;48.818;2.322;2022-12-24T05:54:00;29.45;;;5.75;;
21999;SDS011;11164;48.818;2.322;2022-12-24T05:56:26;32.75;;;5.95;;
21999;SDS011;11164;48.818;2.322;2022-12-24T05:58:52;32.13;;;5.75;;
21999;SDS011;11164;48.818;2.322;2022-12-24T06:01:19;27.90;;;6.20;;
21999;SDS011;11164;48.818;2.322;2022-12-24T06:03:45;29.30;;;6.00;;
21999;SDS011;11164;48.818;2.322;2022-12-24T06:06:11;31.05;;;6.00;;
21999;SDS011;11164;48.818;2.322;2022-12-24T06:08:43;37.47;;;6.72;;
21999;SDS011;11164;48.818;2.322;2022-12-24T06:11:10;31.27;;;5.18;;
21999;SDS011;11164;48.818;2.322;2022-12-24T06:13:36;30.98;;;5.07;;
21999;SDS011;11164;48.818;2.322;2022-12-24T06:16:03;31.90;;;5.20;;
21999;SDS011;11164;48.818;2.322;2022-12-24T06:18:30;27.63;;;4.72;;
21999;SDS011;11164;48.818;2.322;2022-12-24T06:20:57;29.40;;;5.20;;
21999;SDS011;11164;48.818;2.322;2022-12-24T06:23:23;31.67;;;5.18;;
21999;SDS011;11164;48.818;2.322;2022-12-24T06:25:49;26.27;;;5.13;;
21999;SDS011;11164;48.818;2.322;2022-12-24T06:28:15;27.23;;;4.97;;
21999;SDS011;11164;48.818;2.322;2022-12-24T06:30:44;25.45;;;4.05;;
21999;SDS011;11164;48.818;2.322;2022-12-24T06:33:11;21.48;;;4.07;;
21999;SDS011;11164;48.818;2.322;2022-12-24T06:35:36;26.77;;;4.47;;
21999;SDS011;11164;48.818;2.322;2022-12-24T06:38:01;24.13;;;4.43;;
21999;SDS011;11164;48.818;2.322;2022-12-24T06:40:27;25.48;;;4.03;;
21999;SDS011;11164;48.818;2.322;2022-12-24T06:42:52;22.33;;;4.07;;
21999;SDS011;11164;48.818;2.322;2022-12-24T06:45:17;21.95;;;3.55;;
21999;SDS011;11164;48.818;2.322;2022-12-24T06:47:43;22.95;;;3.50;;
21999;SDS011;11164;48.818;2.322;2022-12-24T06:50:08;20.45;;;3.65;;
21999;SDS011;11164;48.818;2.322;2022-12-24T06:52:34;21.80;;;3.42;;
21999;SDS011;11164;48.818;2.322;2022-12-24T06:55:00;20.63;;;3.20;;
21999;SDS011;11164;48.818;2.322;2022-12-24T06:57:25;22.00;;;3.92;;
21999;SDS011;11164;48.818;2.322;2022-12-24T06:59:51;21.35;;;3.85;;
21999;SDS011;11164;48.818;2.322;2022-12-24T07:02:16;18.40;;;2.80;;
21999;SDS011;11164;48.818;2.322;2022-12-24T07:04:41;21.42;;;3.65;;
21999;SDS011;11164;48.818;2.322;2022-12-24T07:07:07;18.25;;;3.78;;
21999;SDS011;11164;48.818;2.322;2022-12-24T07:09:32;17.75;;;3.03;;
21999;SDS011;11164;48.818;2.322;2022-12-24T07:11:57;15.95;;;2.72;;
21999;SDS011;11164;48.818;2.322;2022-12-24T07:14:23;21.00;;;3.17;;
21999;SDS011;11164;48.818;2.322;2022-12-24T07:16:48;17.05;;;2.97;;
21999;SDS011;11164;48.818;2.322;2022-12-24T07:19:14;15.48;;;2.53;;
21999;SDS011;11164;48.818;2.322;2022-12-24T07:21:39;19.23;;;2.50;;
21999;SDS011;11164;48.818;2.322;2022-12-24T07:24:05;13.98;;;2.95;;
21999;SDS011;11164;48.818;2.322;2022-12-24T07:26:30;19.45;;;3.13;;
21999;SDS011;11164;48.818;2.322;2022-12-24T07:28:56;16.02;;;2.65;;
21999;SDS011;11164;48.818;2.322;2022-12-24T07:31:22;17.02;;;3.65;;
21999;SDS011;11164;48.818;2.322;2022-12-24T07:33:47;14.68;;;2.88;;
21999;SDS011;11164;48.818;2.322;2022-12-24T07:36:19;14.80;;;2.50;;
21999;SDS011;11164;48.818;2.322;2022-12-24T07:38:46;18.77;;;3.17;;
21999;SDS011;11164;48.818;2.322;2022-12-24T07:41:12;19.35;;;2.83;;
21999;SDS011;11164;48.818;2.322;2022-12-24T07:43:38;11.95;;;2.38;;
21999;SDS011;11164;48.818;2.322;2022-12-24T07:46:03;16.42;;;3.20;;
21999;SDS011;11164;48.818;2.322;2022-12-24T07:48:29;18.45;;;2.85;;
21999;SDS011;11164;48.818;2.322;2022-12-24T07:50:56;14.27;;;2.47;;
21999;SDS011;11164;48.818;2.322;2022-12-24T07:53:21;13.45;;;2.60;;
21999;SDS011;11164;48.818;2.322;2022-12-24T07:55:48;15.27;;;2.70;;
21999;SDS011;11164;48.818;2.322;2022-12-24T07:58:13;15.57;;;2.80;;
21999;SDS011;11164;48.818;2.322;2022-12-24T08:00:38;19.70;;;2.85;;
21999;SDS011;11164;48.818;2.322;2022-12-24T08:03:04;14.25;;;2.85;;
21999;SDS011;11164;48.818;2.322;2022-12-24T08:05:32;19.42;;;3.00;;
21999;SDS011;11164;48.818;2.322;2022-12-24T08:08:00;14.45;;;2.63;;
21999;SDS011;11164;48.818;2.322;2022-12-24T08:10:26;10.52;;;2.30;;
21999;SDS011;11164;48.818;2.322;2022-12-24T08:12:52;14.23;;;2.30;;
21999;SDS011;11164;48.818;2.322;2022-12-24T08:15:17;10.52;;;2.42;;
21999;SDS011;11164;48.818;2.322;2022-12-24T08:17:42;12.43;;;2.90;;
21999;SDS011;11164;48.818;2.322;2022-12-24T08:20:08;14.82;;;2.70;;
21999;SDS011;11164;48.818;2.322;2022-12-24T08:22:34;14.38;;;2.35;;
21999;SDS011;11164;48.818;2.322;2022-12-24T08:25:00;19.52;;;3.13;;
21999;SDS011;11164;48.818;2.322;2022-12-24T08:27:25;13.93;;;3.08;;
21999;SDS011;11164;48.818;2.322;2022-12-24T08:29:50;11.30;;;1.95;;
21999;SDS011;11164;48.818;2.322;2022-12-24T08:32:16;15.95;;;2.65;;
21999;SDS011;11164;48.818;2.322;2022-12-24T08:34:42;12.77;;;2.45;;
21999;SDS011;11164;48.818;2.322;2022-12-24T08:37:07;15.27;;;2.60;;
21999;SDS011;11164;48.818;2.322;2022-12-24T08:39:32;14.95;;;2.17;;
21999;SDS011;11164;48.818;2.322;2022-12-24T08:41:58;10.82;;;2.10;;
21999;SDS011;11164;48.818;2.322;2022-12-24T08:44:23;12.00;;;2.33;;
21999;SDS011;11164;48.818;2.322;2022-12-24T08:46:48;11.68;;;2.20;;
21999;SDS011;11164;48.818;2.322;2022-12-24T08:49:13;13.35;;;2.97;;
21999;SDS011;11164;48.818;2.322;2022-12-24T08:51:39;11.63;;;2.00;;
21999;SDS011;11164;48.818;2.322;2022-12-24T08:54:05;9.90;;;2.00;;
21999;SDS011;11164;48.818;2.322;2022-12-24T08:56:30;15.95;;;3.05;;
21999;SDS011;11164;48.818;2.322;2022-12-24T08:58:55;20.90;;;3.25;;
21999;SDS011;11164;48.818;2.322;2022-12-24T09:01:21;9.93;;;2.80;;
21999;SDS011;11164;48.818;2.322;2022-12-24T09:03:46;12.00;;;3.55;;
21999;SDS011;11164;48.818;2.322;2022-12-24T09:06:12;10.05;;;2.10;;
21999;SDS011;11164;48.818;2.322;2022-12-24T09:08:38;15.45;;;3.03;;
21999;SDS011;11164;48.818;2.322;2022-12-24T09:13:30;10.38;;;2.40;;
21999;SDS011;11164;48.818;2.322;2022-12-24T09:15:55;11.40;;;2.35;;
21999;SDS011;11164;48.818;2.322;2022-12-24T09:18:20;12.98;;;2.47;;
21999;SDS011;11164;48.818;2.322;2022-12-24T09:20:46;10.20;;;2.30;;
21999;SDS011;11164;48.818;2.322;2022-12-24T09:23:11;16.88;;;2.80;;
21999;SDS011;11164;48.818;2.322;2022-12-24T09:25:42;14.85;;;3.05;;
21999;SDS011;11164;48.818;2.322;2022-12-24T09:28:08;12.00;;;2.85;;
21999;SDS011;11164;48.818;2.322;2022-12-24T09:30:35;11.82;;;2.08;;
21999;SDS011;11164;48.818;2.322;2022-12-24T09:33:01;14.70;;;2.30;;
21999;SDS011;11164;48.818;2.322;2022-12-24T09:35:27;11.00;;;2.58;;
21999;SDS011;11164;48.818;2.322;2022-12-24T09:37:52;11.60;;;2.15;;
21999;SDS011;11164;48.818;2.322;2022-12-24T09:40:28;9.98;;;2.33;;
21999;SDS011;11164;48.818;2.322;2022-12-24T09:43:00;24.97;;;5.00;;
21999;SDS011;11164;48.818;2.322;2022-12-24T09:45:36;23.90;;;8.18;;
21999;SDS011;11164;48.818;2.322;2022-12-24T09:48:11;28.10;;;11.85;;
21999;SDS011;11164;48.818;2.322;2022-12-24T09:53:17;19.08;;;6.95;;
21999;SDS011;11164;48.818;2.322;2022-12-24T09:55:51;30.08;;;11.63;;
21999;SDS011;11164;48.818;2.322;2022-12-24T09:58:32;21.00;;;5.88;;
21999;SDS011;11164;48.818;2.322;2022-12-24T10:01:03;11.52;;;2.80;;
21999;SDS011;11164;48.818;2.322;2022-12-24T10:03:28;22.15;;;7.50;;
21999;SDS011;11164;48.818;2.322;2022-12-24T10:14:11;12.57;;;3.53;;
21999;SDS011;11164;48.818;2.322;2022-12-24T10:24:25;8.68;;;2.22;;
21999;SDS011;11164;48.818;2.322;2022-12-24T10:27:00;9.88;;;2.30;;
21999;SDS011;11164;48.818;2.322;2022-12-24T10:29:27;15.20;;;2.10;;
21999;SDS011;11164;48.818;2.322;2022-12-24T10:31:58;12.18;;;2.13;;
21999;SDS011;11164;48.818;2.322;2022-12-24T10:34:35;14.98;;;3.72;;
21999;SDS011;11164;48.818;2.322;2022-12-24T10:37:08;12.80;;;2.30;;
21999;SDS011;11164;48.818;2.322;2022-12-24T10:39:39;11.98;;;3.10;;
21999;SDS011;11164;48.818;2.322;2022-12-24T10:42:04;18.17;;;5.43;;
21999;SDS011;11164;48.818;2.322;2022-12-24T10:44:31;34.35;;;17.23;;
21999;SDS011;11164;48.818;2.322;2022-12-24T10:46:58;20.63;;;9.98;;
21999;SDS011;11164;48.818;2.322;2022-12-24T10:52:14;13.07;;;3.28;;
21999;SDS011;11164;48.818;2.322;2022-12-24T10:55:06;9.40;;;2.80;;
21999;SDS011;11164;48.818;2.322;2022-12-24T10:57:38;11.52;;;1.95;;
21999;SDS011;11164;48.818;2.322;2022-12-24T11:00:05;11.88;;;2.30;;
21999;SDS011;11164;48.818;2.322;2022-12-24T11:02:42;10.63;;;1.70;;
21999;SDS011;11164;48.818;2.322;2022-12-24T11:05:26;9.68;;;1.92;;
21999;SDS011;11164;48.818;2.322;2022-12-24T11:08:02;10.98;;;2.40;;
21999;SDS011;11164;48.818;2.322;2022-12-24T11:10:29;13.32;;;2.53;;
21999;SDS011;11164;48.818;2.322;2022-12-24T11:12:55;9.95;;;2.30;;
21999;SDS011;11164;48.818;2.322;2022-12-24T11:15:22;12.05;;;1.98;;
21999;SDS011;11164;48.818;2.322;2022-12-24T11:17:57;11.38;;;1.75;;
21999;SDS011;11164;48.818;2.322;2022-12-24T11:20:28;10.68;;;1.70;;
21999;SDS011;11164;48.818;2.322;2022-12-24T11:22:55;10.43;;;3.55;;
21999;SDS011;11164;48.818;2.322;2022-12-24T11:25:25;11.27;;;1.98;;
21999;SDS011;11164;48.818;2.322;2022-12-24T11:27:53;10.13;;;2.03;;
21999;SDS011;11164;48.818;2.322;2022-12-24T11:30:30;9.40;;;2.10;;
21999;SDS011;11164;48.818;2.322;2022-12-24T11:35:24;12.00;;;2.58;;
21999;SDS011;11164;48.818;2.322;2022-12-24T11:38:08;12.05;;;2.00;;
21999;SDS011;11164;48.818;2.322;2022-12-24T11:40:36;10.20;;;2.45;;
21999;SDS011;11164;48.818;2.322;2022-12-24T11:43:05;11.30;;;2.35;;
21999;SDS011;11164;48.818;2.322;2022-12-24T11:45:31;9.13;;;1.80;;
21999;SDS011;11164;48.818;2.322;2022-12-24T11:47:58;7.90;;;2.05;;
21999;SDS011;11164;48.818;2.322;2022-12-24T11:53:16;8.90;;;2.45;;
21999;SDS011;11164;48.818;2.322;2022-12-24T11:55:48;11.27;;;2.22;;
21999;SDS011;11164;48.818;2.322;2022-12-24T12:01:17;14.80;;;2.97;;
21999;SDS011;11164;48.818;2.322;2022-12-24T12:03:48;10.43;;;2.58;;
21999;SDS011;11164;48.818;2.322;2022-12-24T12:09:02;8.73;;;2.28;;
21999;SDS011;11164;48.818;2.322;2022-12-24T12:11:31;13.88;;;2.70;;
21999;SDS011;11164;48.818;2.322;2022-12-24T12:13:58;8.38;;;2.50;;
21999;SDS011;11164;48.818;2.322;2022-12-24T12:16:43;8.43;;;2.10;;
21999;SDS011;11164;48.818;2.322;2022-12-24T12:19:28;7.78;;;1.73;;
21999;SDS011;11164;48.818;2.322;2022-12-24T12:21:59;9.82;;;2.30;;
21999;SDS011;11164;48.818;2.322;2022-12-24T12:24:32;10.32;;;2.50;;
21999;SDS011;11164;48.818;2.322;2022-12-24T12:30:11;12.65;;;3.47;;
21999;SDS011;11164;48.818;2.322;2022-12-24T12:33:27;17.48;;;5.75;;
21999;SDS011;11164;48.818;2.322;2022-12-24T12:35:46;11.57;;;2.72;;
21999;SDS011;11164;48.818;2.322;2022-12-24T12:46:19;10.63;;;3.40;;
21999;SDS011;11164;48.818;2.322;2022-12-24T12:57:40;8.10;;;1.80;;
21999;SDS011;11164;48.818;2.322;2022-12-24T13:00:11;6.45;;;1.75;;
21999;SDS011;11164;48.818;2.322;2022-12-24T13:22:03;10.77;;;2.60;;
21999;SDS011;11164;48.818;2.322;2022-12-24T13:24:30;10.73;;;2.88;;
21999;SDS011;11164;48.818;2.322;2022-12-24T13:37:44;11.15;;;2.70;;
21999;SDS011;11164;48.818;2.322;2022-12-24T13:42:54;8.32;;;2.47;;
21999;SDS011;11164;48.818;2.322;2022-12-24T13:50:48;12.70;;;1.98;;
21999;SDS011;11164;48.818;2.322;2022-12-24T13:53:21;10.20;;;2.47;;
21999;SDS011;11164;48.818;2.322;2022-12-24T13:55:57;11.98;;;2.60;;
21999;SDS011;11164;48.818;2.322;2022-12-24T13:58:25;9.30;;;2.22;;
21999;SDS011;11164;48.818;2.322;2022-12-24T14:01:01;12.82;;;2.65;;
21999;SDS011;11164;48.818;2.322;2022-12-24T14:06:09;8.73;;;2.25;;
21999;SDS011;11164;48.818;2.322;2022-12-24T14:08:44;10.70;;;2.90;;
21999;SDS011;11164;48.818;2.322;2022-12-24T14:11:17;12.63;;;2.85;;
21999;SDS011;11164;48.818;2.322;2022-12-24T14:16:27;8.68;;;2.92;;
21999;SDS011;11164;48.818;2.322;2022-12-24T14:21:34;12.48;;;3.00;;
21999;SDS011;11164;48.818;2.322;2022-12-24T14:24:05;11.20;;;3.03;;
21999;SDS011;11164;48.818;2.322;2022-12-24T14:26:46;11.80;;;3.80;;
21999;SDS011;11164;48.818;2.322;2022-12-24T14:29:16;8.80;;;2.40;;
21999;SDS011;11164;48.818;2.322;2022-12-24T14:31:49;10.43;;;2.75;;
21999;SDS011;11164;48.818;2.322;2022-12-24T14:34:16;8.13;;;2.80;;
21999;SDS011;11164;48.818;2.322;2022-12-24T14:36:41;12.30;;;2.72;;
21999;SDS011;11164;48.818;2.322;2022-12-24T14:39:09;11.00;;;2.92;;
21999;SDS011;11164;48.818;2.322;2022-12-24T14:41:46;11.73;;;3.08;;
21999;SDS011;11164;48.818;2.322;2022-12-24T14:44:24;12.68;;;4.00;;
21999;SDS011;11164;48.818;2.322;2022-12-24T14:47:20;10.20;;;2.67;;
21999;SDS011;11164;48.818;2.322;2022-12-24T14:50:03;12.52;;;3.47;;
21999;SDS011;11164;48.818;2.322;2022-12-24T14:53:32;13.48;;;2.92;;
21999;SDS011;11164;48.818;2.322;2022-12-24T14:55:58;9.48;;;2.97;;
21999;SDS011;11164;48.818;2.322;2022-12-24T14:58:36;10.00;;;3.00;;
21999;SDS011;11164;48.818;2.322;2022-12-24T15:06:40;10.88;;;2.83;;
21999;SDS011;11164;48.818;2.322;2022-12-24T15:09:18;14.88;;;3.55;;
21999;SDS011;11164;48.818;2.322;2022-12-24T15:11:46;11.75;;;2.83;;
21999;SDS011;11164;48.818;2.322;2022-12-24T15:14:13;9.85;;;2.65;;
21999;SDS011;11164;48.818;2.322;2022-12-24T15:16:40;7.22;;;2.63;;
21999;SDS011;11164;48.818;2.322;2022-12-24T15:19:07;11.70;;;2.50;;
21999;SDS011;11164;48.818;2.322;2022-12-24T15:21:58;11.30;;;2.88;;
21999;SDS011;11164;48.818;2.322;2022-12-24T15:24:29;13.57;;;3.97;;
21999;SDS011;11164;48.818;2.322;2022-12-24T15:26:56;10.05;;;2.88;;
21999;SDS011;11164;48.818;2.322;2022-12-24T15:29:24;11.10;;;2.78;;
21999;SDS011;11164;48.818;2.322;2022-12-24T15:31:54;9.00;;;2.85;;
21999;SDS011;11164;48.818;2.322;2022-12-24T15:34:35;11.05;;;3.17;;
21999;SDS011;11164;48.818;2.322;2022-12-24T15:42:19;10.35;;;2.92;;
21999;SDS011;11164;48.818;2.322;2022-12-24T15:47:49;10.75;;;2.47;;
21999;SDS011;11164;48.818;2.322;2022-12-24T15:50:20;9.38;;;2.88;;
21999;SDS011;11164;48.818;2.322;2022-12-24T15:52:53;11.30;;;2.72;;
21999;SDS011;11164;48.818;2.322;2022-12-24T15:57:50;12.55;;;3.28;;
21999;SDS011;11164;48.818;2.322;2022-12-24T16:00:20;9.10;;;2.80;;
21999;SDS011;11164;48.818;2.322;2022-12-24T16:02:47;10.82;;;3.33;;
21999;SDS011;11164;48.818;2.322;2022-12-24T16:10:32;17.63;;;4.25;;
21999;SDS011;11164;48.818;2.322;2022-12-24T16:15:47;11.88;;;4.15;;
21999;SDS011;11164;48.818;2.322;2022-12-24T16:18:23;9.88;;;4.25;;
21999;SDS011;11164;48.818;2.322;2022-12-24T16:20:51;11.07;;;4.28;;
21999;SDS011;11164;48.818;2.322;2022-12-24T16:23:18;14.55;;;4.60;;
21999;SDS011;11164;48.818;2.322;2022-12-24T16:25:46;14.55;;;4.70;;
21999;SDS011;11164;48.818;2.322;2022-12-24T16:28:11;15.75;;;4.50;;
21999;SDS011;11164;48.818;2.322;2022-12-24T16:30:38;14.82;;;4.18;;
21999;SDS011;11164;48.818;2.322;2022-12-24T16:33:03;14.60;;;4.63;;
21999;SDS011;11164;48.818;2.322;2022-12-24T16:35:30;12.85;;;5.40;;
21999;SDS011;11164;48.818;2.322;2022-12-24T16:38:00;20.00;;;5.40;;
21999;SDS011;11164;48.818;2.322;2022-12-24T16:40:27;10.90;;;4.53;;
21999;SDS011;11164;48.818;2.322;2022-12-24T16:42:53;15.25;;;4.57;;
21999;SDS011;11164;48.818;2.322;2022-12-24T16:45:37;13.20;;;5.00;;
21999;SDS011;11164;48.818;2.322;2022-12-24T16:48:03;12.05;;;4.50;;
21999;SDS011;11164;48.818;2.322;2022-12-24T16:50:30;13.00;;;4.20;;
21999;SDS011;11164;48.818;2.322;2022-12-24T16:52:56;13.23;;;4.90;;
21999;SDS011;11164;48.818;2.322;2022-12-24T16:55:21;13.05;;;5.30;;
21999;SDS011;11164;48.818;2.322;2022-12-24T16:57:46;13.15;;;4.93;;
21999;SDS011;11164;48.818;2.322;2022-12-24T17:00:16;15.63;;;6.03;;
21999;SDS011;11164;48.818;2.322;2022-12-24T17:02:44;12.35;;;5.35;;
21999;SDS011;11164;48.818;2.322;2022-12-24T17:05:10;13.40;;;5.90;;
21999;SDS011;11164;48.818;2.322;2022-12-24T17:07:36;19.63;;;6.30;;
21999;SDS011;11164;48.818;2.322;2022-12-24T17:10:01;14.55;;;5.38;;
21999;SDS011;11164;48.818;2.322;2022-12-24T17:12:27;12.25;;;4.80;;
21999;SDS011;11164;48.818;2.322;2022-12-24T17:14:52;14.02;;;6.10;;